Temp: 10.6°C   Baro: 1017.6mb
  Wind: 2.9mph   Dir: W (277°)
  Rain: 0.0mm (0.0mm/hr)
  Sun: 285W/m2  Humidity: 59%

Historic data

Bath Spa Weather Station Historical Data
Daily Summary for October 22, 2022 Units:  English    Metric   Both
Daily Weekly Monthly Yearly Custom
  High: Low: Average:
Temperature: 62.1 °F 51.4 °F 57.8 °F
Dew Point: 56.8 °F 48.5 °F 54.2 °F
Humidity: 93.4% 80% 88%
Wind Speed: 8.8mph 0mph 3mph
Wind Gust: 16mph - -
Wind- - South
Pressure: 29.83 in 29.58 in -
Precipitation: 0.04 in    
Historical Graphs
 
 
Tabular Data for October 22, 2022
Time Temperature Dew Point Pressure Wind Wind Speed Wind Gust Humidity Rainfall Rate (Hourly) solar
00:09 56.6 °F 54.2 °F 29.58 in SSE 1.5 mph 4 mph 92% 0.00 in 0 W/m2
00:14 56.7 °F 54.4 °F 29.58 in South 0.6 mph 4 mph 92% 0.00 in 0 W/m2
00:19 56.8 °F 54.5 °F 29.58 in SW 2 mph 7 mph 92% 0.00 in 0 W/m2
00:24 57 °F 54.7 °F 29.59 in SSW 2.8 mph 9 mph 92% 0.00 in 0 W/m2
00:29 57.2 °F 54.9 °F 29.59 in SSW 4.1 mph 8 mph 92% 0.00 in 0 W/m2
00:34 57.4 °F 55 °F 29.59 in SSW 2.5 mph 8 mph 92% 0.00 in 0 W/m2
00:39 57.4 °F 55 °F 29.59 in South 1.6 mph 5 mph 92% 0.00 in 0 W/m2
00:44 57.4 °F 55 °F 29.59 in SSW 2.3 mph 6 mph 92% 0.00 in 0 W/m2
00:49 57.4 °F 55 °F 29.59 in SW 3.9 mph 8 mph 92% 0.00 in 0 W/m2
00:54 57.4 °F 55 °F 29.60 in SW 1.4 mph 7 mph 91.8% 0.00 in 0 W/m2
00:59 57.4 °F 54.9 °F 29.60 in SSW 3.3 mph 7 mph 91% 0.00 in 0 W/m2
01:04 57.4 °F 54.9 °F 29.60 in SSW 2.8 mph 7 mph 91% 0.00 in 0 W/m2
01:09 57.3 °F 54.8 °F 29.61 in SSW 3.1 mph 8 mph 91% 0.00 in 0 W/m2
01:14 57.2 °F 54.7 °F 29.61 in SW 4 mph 9 mph 91% 0.00 in 0 W/m2
01:19 57.2 °F 54.7 °F 29.62 in SSW 3.2 mph 6 mph 91% 0.00 in 0 W/m2
01:24 57.1 °F 54.3 °F 29.62 in WSW 2.8 mph 6 mph 90.4% 0.00 in 0 W/m2
01:29 57 °F 54.3 °F 29.62 in SW 2 mph 6 mph 90.6% 0.00 in 0 W/m2
01:34 57 °F 54.3 °F 29.62 in WSW 3.3 mph 11 mph 90.6% 0.00 in 0 W/m2
01:39 57.2 °F 54.3 °F 29.62 in WSW 2.7 mph 7 mph 90% 0.00 in 0 W/m2
01:44 57.4 °F 54.5 °F 29.62 in WSW 4 mph 8 mph 90% 0.00 in 0 W/m2
01:49 57.4 °F 54.5 °F 29.62 in WSW 2.7 mph 6 mph 90% 0.00 in 0 W/m2
01:54 57.4 °F 54.5 °F 29.63 in WSW 1.4 mph 6 mph 90% 0.00 in 0 W/m2
01:59 57.4 °F 54.5 °F 29.63 in SW 3.7 mph 11 mph 90% 0.00 in 0 W/m2
02:04 57.4 °F 54.5 °F 29.63 in WSW 3.3 mph 10 mph 90% 0.00 in 0 W/m2
02:09 57.3 °F 54.4 °F 29.64 in SSW 4 mph 10 mph 90% 0.00 in 0 W/m2
02:14 57.2 °F 54.3 °F 29.64 in SW 6.1 mph 10 mph 90% 0.00 in 0 W/m2
02:19 57.2 °F 54 °F 29.64 in WSW 6.6 mph 11 mph 89% 0.00 in 0 W/m2
02:24 57 °F 53.8 °F 29.65 in WSW 6.6 mph 11 mph 89% 0.00 in 0 W/m2
02:29 57 °F 53.8 °F 29.65 in SW 5.1 mph 9 mph 89% 0.00 in 0 W/m2
02:34 56.8 °F 53.6 °F 29.65 in WSW 2.8 mph 5 mph 89% 0.00 in 0 W/m2
02:39 56.8 °F 53.6 °F 29.65 in WSW 2.8 mph 7 mph 89% 0.00 in 0 W/m2
02:44 56.8 °F 53.6 °F 29.66 in WSW 2.9 mph 7 mph 89% 0.00 in 0 W/m2
02:49 56.7 °F 53.5 °F 29.66 in SW 2.8 mph 7 mph 89% 0.00 in 0 W/m2
02:54 56.8 °F 53.5 °F 29.66 in SW 4.8 mph 16 mph 89% 0.00 in 0 W/m2
02:59 56.8 °F 53.6 °F 29.66 in SW 5.4 mph 16 mph 89% 0.00 in 0 W/m2
03:04 56.8 °F 53.6 °F 29.67 in SW 4.1 mph 10 mph 89% 0.00 in 0 W/m2
03:09 56.7 °F 53.2 °F 29.67 in SW 4.5 mph 9 mph 88.2% 0.00 in 0 W/m2
03:14 56.6 °F 53 °F 29.67 in WSW 4.5 mph 12 mph 88% 0.00 in 0 W/m2
03:19 56.4 °F 52.9 °F 29.67 in SW 7.6 mph 12 mph 88% 0.00 in 0 W/m2
03:24 56.1 °F 52.7 °F 29.67 in SW 6.8 mph 14 mph 88% 0.00 in 0 W/m2
03:29 55.9 °F 52.5 °F 29.67 in SW 7 mph 14 mph 88% 0.00 in 0 W/m2
03:34 55.8 °F 52 °F 29.67 in SW 6.2 mph 15 mph 87% 0.00 in 0 W/m2
03:39 55.7 °F 51.9 °F 29.67 in SW 5.3 mph 9 mph 87% 0.00 in 0 W/m2
03:44 55.5 °F 51.7 °F 29.68 in SW 4.3 mph 8 mph 87% 0.00 in 0 W/m2
03:49 55.1 °F 51.4 °F 29.68 in WSW 4.1 mph 8 mph 87% 0.00 in 0 W/m2
03:54 55 °F 51.3 °F 29.68 in WSW 5.1 mph 8 mph 87% 0.00 in 0 W/m2
03:59 55 °F 51.2 °F 29.68 in WSW 5.1 mph 10 mph 87% 0.00 in 0 W/m2
04:04 55 °F 51.3 °F 29.68 in SW 6.8 mph 10 mph 87% 0.00 in 0 W/m2
04:09 55 °F 51.3 °F 29.68 in SSW 3.3 mph 8 mph 87% 0.00 in 0 W/m2
04:14 54.8 °F 51 °F 29.68 in SW 4.8 mph 8 mph 87% 0.00 in 0 W/m2
04:19 54.7 °F 50.9 °F 29.68 in SW 3.8 mph 8 mph 87% 0.00 in 0 W/m2
04:24 54.5 °F 50.7 °F 29.69 in SW 2.7 mph 8 mph 87% 0.00 in 0 W/m2
04:29 54.3 °F 50.5 °F 29.69 in SW 3.5 mph 9 mph 87% 0.00 in 0 W/m2
04:34 54.1 °F 50.4 °F 29.69 in WSW 4.8 mph 10 mph 87% 0.00 in 0 W/m2
04:39 54.1 °F 50.4 °F 29.69 in SW 4 mph 8 mph 87% 0.00 in 0 W/m2
04:44 54.1 °F 50.4 °F 29.70 in WSW 1.8 mph 7 mph 87% 0.00 in 0 W/m2
04:49 54 °F 50.3 °F 29.70 in SSW 2.6 mph 5 mph 87% 0.00 in 0 W/m2
04:54 54 °F 50.2 °F 29.70 in SW 3 mph 5 mph 87% 0.00 in 0 W/m2
04:59 53.8 °F 50 °F 29.70 in SW 2.4 mph 6 mph 87% 0.00 in 0 W/m2
05:04 53.7 °F 49.9 °F 29.71 in WSW 2.8 mph 6 mph 87% 0.00 in 0 W/m2
05:08 53.5 °F 49.7 °F 29.71 in WSW 3.5 mph 7 mph 87% 0.00 in 0 W/m2
05:14 53.4 °F 49.6 °F 29.71 in WSW 2.9 mph 7 mph 87% 0.00 in 0 W/m2
05:19 53.4 °F 49.6 °F 29.71 in West 2.8 mph 6 mph 87% 0.00 in 0 W/m2
05:24 53.3 °F 49.6 °F 29.71 in WSW 3.2 mph 9 mph 87% 0.00 in 0 W/m2
05:29 53.4 °F 49.6 °F 29.71 in WSW 1.7 mph 9 mph 87% 0.00 in 0 W/m2
05:34 53.2 °F 49.6 °F 29.72 in WSW 1.7 mph 4 mph 87.4% 0.00 in 0 W/m2
05:39 53.1 °F 49.6 °F 29.72 in West 1.1 mph 4 mph 88% 0.00 in 0 W/m2
05:44 53.1 °F 49.6 °F 29.72 in West 0.9 mph 3 mph 88% 0.00 in 0 W/m2
05:49 52.9 °F 49.5 °F 29.72 in West 1.2 mph 3 mph 88% 0.00 in 0 W/m2
05:54 52.8 °F 49.4 °F 29.72 in West 1.2 mph 3 mph 88% 0.00 in 0 W/m2
05:59 52.6 °F 49.2 °F 29.72 in West 0.8 mph 3 mph 88% 0.00 in 0 W/m2
06:04 52.5 °F 49.1 °F 29.72 in WSW 1.4 mph 4 mph 88% 0.00 in 0 W/m2
06:09 52.6 °F 49.2 °F 29.72 in WSW 1 mph 4 mph 88% 0.00 in 0 W/m2
06:14 52.7 °F 49.3 °F 29.73 in WSW 1 mph 3 mph 88% 0.00 in 0 W/m2
06:19 52.8 °F 49.5 °F 29.73 in WSW 0.8 mph 4 mph 88.8% 0.00 in 0 W/m2
06:24 52.9 °F 49.5 °F 29.73 in Calm   3 mph 88.2% 0.00 in 0 W/m2
06:29 52.8 °F 49.5 °F 29.73 in Calm     88.4% 0.00 in 0 W/m2
06:34 52.4 °F 49.4 °F 29.73 in Calm     89% 0.00 in 0 W/m2
06:39 52.2 °F 49.1 °F 29.74 in WSW 0.8 mph 4 mph 88.8% 0.00 in 0 W/m2
06:44 52.4 °F 49.4 °F 29.74 in Calm   3 mph 89% 0.00 in 0 W/m2
06:49 52.3 °F 49.3 °F 29.74 in WSW 1.2 mph 3 mph 89% 0.00 in 0 W/m2
06:54 52.2 °F 49.1 °F 29.74 in WSW 2 mph 4 mph 89% 0.00 in 0 W/m2
06:59 52.2 °F 49.1 °F 29.75 in WSW 1.3 mph 3 mph 89% 0.00 in 0 W/m2
07:04 52.4 °F 49.4 °F 29.75 in SSW 3.2 mph 7 mph 89.2% 0.00 in 0 W/m2
07:09 52.6 °F 49.6 °F 29.75 in SW 1.3 mph 5 mph 89.4% 0.00 in 0 W/m2
07:14 52.5 °F 49.5 °F 29.75 in SW 2.4 mph 4 mph 89% 0.00 in 0 W/m2
07:19 52.5 °F 49.5 °F 29.75 in SW 0.4 mph 4 mph 89% 0.00 in 0 W/m2
07:24 52.3 °F 49.2 °F 29.76 in SW 0.8 mph 3 mph 89% 0.00 in 0 W/m2
07:29 52.2 °F 49.1 °F 29.76 in SW 0.2 mph 3 mph 89% 0.00 in 0 W/m2
07:34 52.2 °F 49.1 °F 29.76 in SW 1 mph 4 mph 89% 0.00 in 0 W/m2
07:39 52.3 °F 49.2 °F 29.76 in SW 0.6 mph 3 mph 89% 0.00 in 0 W/m2
07:44 52.5 °F 49.5 °F 29.77 in Calm   2 mph 89.2% 0.00 in 0 W/m2
07:49 52.3 °F 49.3 °F 29.77 in SW 2.2 mph 4 mph 89.4% 0.00 in 5 W/m2
07:54 51.8 °F 48.7 °F 29.77 in SW 0.5 mph 2 mph 89% 0.00 in 7 W/m2
07:59 51.4 °F 48.5 °F 29.77 in SW 1.1 mph 5 mph 89.4% 0.00 in 9 W/m2
08:04 51.6 °F 48.7 °F 29.78 in WSW 0.8 mph 3 mph 90% 0.00 in 11 W/m2
08:09 51.5 °F 48.7 °F 29.78 in WSW 0.2 mph 1 mph 90% 0.00 in 16 W/m2
08:14 51.4 °F 48.6 °F 29.78 in WSW 1.2 mph 3 mph 90% 0.00 in 19 W/m2
08:19 51.4 °F 48.6 °F 29.78 in WSW 2.2 mph 4 mph 90% 0.00 in 21 W/m2
08:24 51.5 °F 48.6 °F 29.78 in WSW 1.9 mph 4 mph 90% 0.00 in 25 W/m2
08:29 51.8 °F 48.9 °F 29.79 in WSW 1.7 mph 4 mph 90% 0.00 in 26 W/m2
08:34 52.1 °F 49.2 °F 29.79 in WSW 1.7 mph 4 mph 90% 0.00 in 30 W/m2
08:39 52.4 °F 49.5 °F 29.79 in SW 2.3 mph 5 mph 90% 0.00 in 32 W/m2
08:44 52.6 °F 49.7 °F 29.78 in SW 1.2 mph 4 mph 90% 0.00 in 33 W/m2
08:49 52.9 °F 50 °F 29.79 in SW 0.9 mph 4 mph 90% 0.00 in 37 W/m2
08:54 53.1 °F 50.3 °F 29.79 in SW 0.8 mph 4 mph 90% 0.00 in 39 W/m2
08:59 53.5 °F 50.6 °F 29.79 in SW 2.8 mph 4 mph 90% 0.00 in 40 W/m2
09:04 53.8 °F 50.9 °F 29.79 in SW 2.4 mph 4 mph 90% 0.00 in 44 W/m2
09:09 54 °F 51.2 °F 29.79 in SW 2.4 mph 7 mph 90% 0.00 in 51 W/m2
09:14 54.2 °F 51.4 °F 29.79 in SW 2.4 mph 7 mph 90% 0.00 in 60 W/m2
09:19 54.5 °F 51.6 °F 29.80 in South 3.2 mph 6 mph 90% 0.00 in 67 W/m2
09:24 54.8 °F 51.8 °F 29.80 in SSW 2.8 mph 6 mph 89.8% 0.00 in 81 W/m2
09:29 54.9 °F 51.6 °F 29.80 in SW 3.2 mph 6 mph 89% 0.00 in 90 W/m2
09:34 55.1 °F 51.9 °F 29.80 in SW 2 mph 4 mph 89% 0.00 in 109 W/m2
09:39 55.3 °F 52.1 °F 29.80 in SW 1 mph 3 mph 89% 0.00 in 118 W/m2
09:44 55.8 °F 52.5 °F 29.80 in SW 1.3 mph 4 mph 89% 0.00 in 132 W/m2
09:49 56.1 °F 52.9 °F 29.81 in SSW 0.8 mph 4 mph 89% 0.00 in 156 W/m2
09:54 56.6 °F 53.3 °F 29.81 in SSW 0.6 mph 2 mph 89% 0.00 in 181 W/m2
09:59 56.8 °F 53.2 °F 29.81 in SSW 1.2 mph 3 mph 88% 0.00 in 192 W/m2
10:04 56.8 °F 53.2 °F 29.81 in SSW 1.2 mph 3 mph 88% 0.00 in 162 W/m2
10:09 57 °F 53.3 °F 29.81 in SSW 1.9 mph 3 mph 87.6% 0.00 in 181 W/m2
10:14 57.1 °F 53.3 °F 29.82 in SSW 2.2 mph 4 mph 87% 0.00 in 230 W/m2
10:19 57.4 °F 53.6 °F 29.82 in SW 1.7 mph 5 mph 87% 0.00 in 257 W/m2
10:24 57.7 °F 53.6 °F 29.82 in SW 1.3 mph 3 mph 86% 0.00 in 253 W/m2
10:29 58.2 °F 54.1 °F 29.82 in SW 2.8 mph 6 mph 86% 0.00 in 207 W/m2
10:34 58.3 °F 53.9 °F 29.82 in South 2.5 mph 7 mph 85.4% 0.00 in 172 W/m2
10:39 58.3 °F 53.8 °F 29.82 in SSW 3.4 mph 6 mph 85% 0.00 in 176 W/m2
10:44 58.4 °F 53.9 °F 29.82 in SSE 2.6 mph 6 mph 85% 0.00 in 243 W/m2
10:49 58.7 °F 54.2 °F 29.82 in South 2 mph 5 mph 85% 0.00 in 223 W/m2
10:54 58.9 °F 54.4 °F 29.82 in SSE 2.4 mph 5 mph 85% 0.00 in 265 W/m2
10:59 59 °F 54.5 °F 29.82 in SE 2.4 mph 6 mph 84.8% 0.00 in 267 W/m2
11:04 59.2 °F 54.5 °F 29.82 in South 3.3 mph 7 mph 84.4% 0.00 in 200 W/m2
11:09 59.2 °F 54.4 °F 29.82 in South 2.6 mph 7 mph 84.2% 0.00 in 190 W/m2
11:14 59.5 °F 54.8 °F 29.83 in South 3.2 mph 6 mph 84.4% 0.00 in 279 W/m2
11:19 59.9 °F 55 °F 29.82 in SSE 2.4 mph 5 mph 84% 0.00 in 385 W/m2
11:24 60.5 °F 55.5 °F 29.82 in SSW 3.6 mph 6 mph 83.7% 0.00 in 343 W/m2
11:29 60.6 °F 55.4 °F 29.83 in SSW 3.7 mph 9 mph 83% 0.00 in 385 W/m2
11:34 60.6 °F 55.4 °F 29.83 in South 5.2 mph 10 mph 83% 0.00 in 399 W/m2
11:39 60.8 °F 55.6 °F 29.83 in SSW 3.7 mph 9 mph 83% 0.00 in 464 W/m2
11:44 60.9 °F 55.3 °F 29.83 in SW 4.8 mph 8 mph 82% 0.00 in 399 W/m2
11:49 60.9 °F 55.5 °F 29.83 in South 2 mph 7 mph 82.6% 0.00 in 445 W/m2
11:54 61.6 °F 56.2 °F 29.83 in South 2.4 mph 5 mph 82.6% 0.00 in 515 W/m2
11:59 62 °F 56.2 °F 29.83 in South 3.9 mph 10 mph 81.6% 0.00 in 297 W/m2
12:04 61.3 °F 55.4 °F 29.83 in South 4.3 mph 10 mph 81% 0.00 in 227 W/m2
12:09 60.8 °F 55 °F 29.82 in South 5.2 mph 12 mph 81.6% 0.00 in 125 W/m2
12:14 60.6 °F 55.1 °F 29.82 in South 1.7 mph 9 mph 82.2% 0.00 in 93 W/m2
12:19 60.7 °F 55.5 °F 29.82 in SSE 1.2 mph 4 mph 83% 0.00 in 288 W/m2
12:24 61.2 °F 56.1 °F 29.82 in SSE 0.4 mph 3 mph 83.4% 0.00 in 471 W/m2
12:29 61.9 °F 56.8 °F 29.82 in SSE 1.7 mph 4 mph 83.6% 0.00 in 446 W/m2
12:34 61.7 °F 56.2 °F 29.82 in SSE 2.8 mph 5 mph 82.2% 0.00 in 299 W/m2
12:39 61.2 °F 55.7 °F 29.82 in South 3.3 mph 6 mph 82% 0.00 in 206 W/m2
12:44 61.1 °F 55.5 °F 29.82 in SSE 3 mph 7 mph 82% 0.00 in 237 W/m2
12:49 61.2 °F 55.6 °F 29.82 in SSW 3.4 mph 10 mph 82% 0.00 in 255 W/m2
12:54 61.5 °F 55.9 °F 29.82 in South 2.4 mph 6 mph 82% 0.00 in 192 W/m2
12:59 61.8 °F 55.9 °F 29.82 in South 4.2 mph 8 mph 81.2% 0.00 in 149 W/m2
13:04 61.6 °F 55.6 °F 29.82 in SSE 5.7 mph 11 mph 80.8% 0.00 in 132 W/m2
13:09 61.3 °F 55.4 °F 29.82 in SSW 4.1 mph 10 mph 81% 0.00 in 125 W/m2
13:14 61.3 °F 55.3 °F 29.82 in South 5 mph 10 mph 81% 0.00 in 127 W/m2
13:19 61.2 °F 55.2 °F 29.82 in South 3.6 mph 10 mph 81% 0.00 in 311 W/m2
13:24 61.5 °F 55.6 °F 29.82 in SW 4.4 mph 8 mph 81% 0.00 in 320 W/m2
13:29 61.7 °F 55.6 °F 29.82 in SSW 4.2 mph 8 mph 80.6% 0.00 in 325 W/m2
13:34 61.8 °F 55.5 °F 29.82 in SSW 4.2 mph 9 mph 80% 0.00 in 325 W/m2
13:39 62.1 °F 55.9 °F 29.82 in SSW 5.1 mph 10 mph 80.2% 0.00 in 281 W/m2
13:44 62.1 °F 55.8 °F 29.82 in SW 4.8 mph 10 mph 80% 0.00 in 279 W/m2
13:49 62 °F 55.7 °F 29.82 in SSW 5.7 mph 10 mph 80% 0.00 in 271 W/m2
13:54 62 °F 56 °F 29.82 in South 6.8 mph 12 mph 81% 0.00 in 243 W/m2
13:59 61.6 °F 55.8 °F 29.82 in South 6 mph 12 mph 81.2% 0.00 in 216 W/m2
14:04 61.5 °F 55.9 °F 29.82 in SSW 3 mph 10 mph 82% 0.00 in 197 W/m2
14:09 61.5 °F 55.9 °F 29.81 in South 4.4 mph 13 mph 82% 0.00 in 195 W/m2
14:14 61.4 °F 55.8 °F 29.81 in South 8.8 mph 12 mph 82% 0.00 in 195 W/m2
14:19 61.3 °F 56 °F 29.81 in SW 7.8 mph 16 mph 82.4% 0.00 in 192 W/m2
14:24 61.3 °F 56.1 °F 29.81 in South 4.5 mph 12 mph 83% 0.00 in 174 W/m2
14:29 61.3 °F 56.1 °F 29.81 in South 4.8 mph 11 mph 83% 0.00 in 169 W/m2
14:34 61.5 °F 56.3 °F 29.81 in South 4.1 mph 8 mph 83% 0.00 in 183 W/m2
14:39 61.5 °F 56.3 °F 29.81 in South 4 mph 9 mph 83% 0.00 in 172 W/m2
14:44 61.5 °F 56.3 °F 29.81 in South 3.6 mph 10 mph 83% 0.00 in 153 W/m2
14:49 61.5 °F 56.3 °F 29.81 in South 3.3 mph 10 mph 83% 0.00 in 165 W/m2
14:54 61.5 °F 56.3 °F 29.81 in South 3.4 mph 10 mph 83% 0.00 in 165 W/m2
14:59 61.4 °F 56.2 °F 29.81 in South 4.1 mph 11 mph 83% 0.00 in 148 W/m2
15:04 61.5 °F 56.5 °F 29.81 in South 2.9 mph 9 mph 83.6% 0.00 in 139 W/m2
15:09 61.5 °F 56.6 °F 29.81 in South 4.1 mph 7 mph 83.8% 0.00 in 132 W/m2
15:14 61.4 °F 56.6 °F 29.81 in South 3.2 mph 7 mph 84% 0.00 in 127 W/m2
15:19 61.5 °F 56.7 °F 29.81 in SE 3.2 mph 7 mph 84% 0.00 in 123 W/m2
15:24 61.4 °F 56.6 °F 29.80 in South 3.3 mph 7 mph 84% 0.00 in 134 W/m2
15:29 61.5 °F 56.6 °F 29.80 in South 2.9 mph 8 mph 83.8% 0.00 in 144 W/m2
15:34 61.5 °F 56.3 °F 29.80 in South 5.2 mph 10 mph 83% 0.00 in 142 W/m2
15:39 61.5 °F 56.3 °F 29.80 in South 5.7 mph 9 mph 83% 0.00 in 137 W/m2
15:44 61.5 °F 56.3 °F 29.80 in South 3.7 mph 9 mph 83% 0.00 in 118 W/m2
15:49 61.5 °F 56.3 °F 29.80 in South 3.6 mph 9 mph 83% 0.00 in 111 W/m2
15:54 61.5 °F 56.3 °F 29.80 in South 3.7 mph 7 mph 83% 0.00 in 102 W/m2
15:59 61.7 °F 56.5 °F 29.80 in SSE 2.5 mph 5 mph 83% 0.00 in 120 W/m2
16:04 61.7 °F 56.5 °F 29.80 in SSE 3.1 mph 6 mph 83% 0.00 in 120 W/m2
16:09 61.6 °F 56.4 °F 29.80 in SSE 3.6 mph 6 mph 83% 0.00 in 97 W/m2
16:14 61.5 °F 56.6 °F 29.80 in SSE 1.9 mph 5 mph 83.8% 0.00 in 74 W/m2
16:19 61.5 °F 56.7 °F 29.80 in SSE 4.5 mph 8 mph 84% 0.00 in 60 W/m2
16:24 61.3 °F 56.5 °F 29.80 in South 4.7 mph 8 mph 84% 0.00 in 53 W/m2
16:29 61.3 °F 56.5 °F 29.80 in SSE 3.8 mph 8 mph 84% 0.00 in 56 W/m2
16:34 61.3 °F 56.5 °F 29.80 in SSE 5.1 mph 9 mph 84% 0.00 in 65 W/m2
16:39 61.2 °F 56.3 °F 29.79 in SSE 4 mph 9 mph 84% 0.00 in 62 W/m2
16:44 61.2 °F 56.3 °F 29.79 in South 3.3 mph 7 mph 84% 0.00 in 53 W/m2
16:49 61.2 °F 56.5 °F 29.79 in SSE 2.8 mph 7 mph 84.4% 0.00 in 39 W/m2
16:54 61.2 °F 56.7 °F 29.79 in SSE 2.3 mph 5 mph 85% 0.00 in 32 W/m2
16:59 61.2 °F 56.7 °F 29.79 in SE 2.9 mph 6 mph 85% 0.00 in 19 W/m2
17:04 61.2 °F 56.7 °F 29.79 in SE 2 mph 6 mph 85% 0.00 in 33 W/m2
17:09 61 °F 56.5 °F 29.79 in SSE 3.4 mph 6 mph 85% 0.00 in 33 W/m2
17:14 61 °F 56.5 °F 29.80 in SSE 3.3 mph 8 mph 85% 0.00 in 28 W/m2
17:19 60.8 °F 56.6 °F 29.80 in SSE 4 mph 8 mph 85.8% 0.00 in 32 W/m2
17:24 60.8 °F 56.7 °F 29.80 in SSE 4.9 mph 9 mph 86% 0.00 in 32 W/m2
17:29 60.6 °F 56.5 °F 29.79 in SSE 4 mph 8 mph 86% 0.00 in 26 W/m2
17:34 60.6 °F 56.5 °F 29.79 in SSE 4.9 mph 8 mph 86% 0.00 in 25 W/m2
17:39 60.6 °F 56.5 °F 29.79 in SSE 2 mph 8 mph 86% 0.00 in 19 W/m2
17:44 60.4 °F 56.3 °F 29.79 in SSE 2.9 mph 6 mph 86% 0.00 in 12 W/m2
17:49 60.4 °F 56.4 °F 29.79 in SSE 4.7 mph 7 mph 86.6% 0.00 in 9 W/m2
17:54 60.4 °F 56.5 °F 29.79 in SSE 3.7 mph 7 mph 87% 0.00 in 5 W/m2
17:59 60.4 °F 56.4 °F 29.80 in SSE 2.4 mph 6 mph 86.8% 0.00 in 0 W/m2
18:04 60.3 °F 56.3 °F 29.80 in SSE 4.1 mph 7 mph 87% 0.00 in 0 W/m2
18:09 60.3 °F 56.3 °F 29.80 in SE 4.5 mph 8 mph 87% 0.00 in 0 W/m2
18:14 60.3 °F 56.3 °F 29.80 in SSE 4 mph 6 mph 87% 0.00 in 0 W/m2
18:19 60.3 °F 56.3 °F 29.80 in SSE 3.2 mph 6 mph 87% 0.00 in 0 W/m2
18:24 60.3 °F 56.3 °F 29.80 in SE 2.5 mph 6 mph 87% 0.00 in 0 W/m2
18:29 60.1 °F 56.5 °F 29.80 in SE 1.6 mph 5 mph 88% 0.00 in 0 W/m2
18:34 60.1 °F 56.5 °F 29.80 in SE 2.9 mph 7 mph 88% 0.00 in 0 W/m2
18:39 60.1 °F 56.5 °F 29.80 in SE 3.1 mph 7 mph 88% 0.00 in 0 W/m2
18:44 60.1 °F 56.5 °F 29.81 in SSE 3.6 mph 6 mph 88% 0.00 in 0 W/m2
18:49 60.1 °F 56.5 °F 29.81 in SSE 2.3 mph 5 mph 88% 0.00 in 0 W/m2
18:54 59.9 °F 56.3 °F 29.80 in SE 1.2 mph 3 mph 88% 0.02 in 0 W/m2
18:59 59.8 °F 56.2 °F 29.80 in Calm   1 mph 88% 0.03 in 0 W/m2
19:04 59.7 °F 56.3 °F 29.80 in SE 0.4 mph 2 mph 88.4% 0.03 in 0 W/m2
19:09 59.7 °F 56.5 °F 29.81 in ESE 1.5 mph 3 mph 89% 0.03 in 0 W/m2
19:14 59.5 °F 56.3 °F 29.81 in ESE 1.9 mph 6 mph 89% 0.04 in 0 W/m2
19:19 59.4 °F 56.2 °F 29.81 in SE 1.9 mph 5 mph 89.2% 0.04 in 0 W/m2
19:24 59.2 °F 56.3 °F 29.81 in SE 2.8 mph 6 mph 90% 0.04 in 0 W/m2
19:29 59 °F 56.1 °F 29.81 in SE 2.5 mph 6 mph 90% 0.04 in 0 W/m2
19:34 58.9 °F 56.2 °F 29.81 in ESE 2 mph 4 mph 90.8% 0.04 in 0 W/m2
19:39 58.8 °F 56.1 °F 29.81 in ESE 2.4 mph 4 mph 91% 0.04 in 0 W/m2
19:44 58.8 °F 56.1 °F 29.81 in ESE 2.9 mph 6 mph 91% 0.04 in 0 W/m2
19:49 58.6 °F 55.9 °F 29.81 in SE 2 mph 5 mph 91% 0.04 in 0 W/m2
19:54 58.6 °F 55.9 °F 29.81 in SE 4.4 mph 7 mph 91% 0.03 in 0 W/m2
19:59 58.6 °F 56.1 °F 29.81 in SE 2.4 mph 6 mph 91.6% 0.02 in 0 W/m2
20:04 58.6 °F 56.3 °F 29.81 in SE 2.3 mph 5 mph 92% 0.01 in 0 W/m2
20:09 58.6 °F 56.2 °F 29.81 in SE 2 mph 6 mph 92% 0.01 in 0 W/m2
20:14 58.6 °F 56.3 °F 29.81 in SE 2 mph 5 mph 92% 0.01 in 0 W/m2
20:19 58.5 °F 56.2 °F 29.81 in SE 2.2 mph 4 mph 92% 0.00 in 0 W/m2
20:24 58.6 °F 56.3 °F 29.81 in SE 1.5 mph 5 mph 92% 0.00 in 0 W/m2
20:29 58.6 °F 56.3 °F 29.81 in SE 2.5 mph 4 mph 92% 0.00 in 0 W/m2
20:34 58.5 °F 56.1 °F 29.81 in SE 2.6 mph 6 mph 92% 0.00 in 0 W/m2
20:39 58.6 °F 56.3 °F 29.81 in SE 2.5 mph 7 mph 92% 0.00 in 0 W/m2
20:44 58.6 °F 56.3 °F 29.81 in SE 2.4 mph 5 mph 92% 0.00 in 0 W/m2
20:49 58.6 °F 56.3 °F 29.81 in SSE 1.7 mph 5 mph 92% 0.00 in 0 W/m2
20:54 58.6 °F 56.3 °F 29.81 in SE 1 mph 5 mph 92% 0.00 in 0 W/m2
20:59 58.6 °F 56.3 °F 29.80 in SE 2 mph 7 mph 92% 0.00 in 0 W/m2
21:04 58.5 °F 56.2 °F 29.80 in SE 2.4 mph 6 mph 92% 0.00 in 0 W/m2
21:09 58.5 °F 56.4 °F 29.80 in SE 4 mph 8 mph 92.8% 0.00 in 0 W/m2
21:14 58.5 °F 56.6 °F 29.80 in SE 3.2 mph 8 mph 93% 0.00 in 0 W/m2
21:19 58.6 °F 56.7 °F 29.80 in SSE 4.4 mph 8 mph 93% 0.00 in 0 W/m2
21:24 58.6 °F 56.7 °F 29.80 in SSE 4.7 mph 8 mph 93% 0.00 in 0 W/m2
21:29 58.6 °F 56.7 °F 29.80 in SE 4 mph 9 mph 93% 0.00 in 0 W/m2
21:34 58.7 °F 56.7 °F 29.80 in SSE 3.2 mph 7 mph 93% 0.00 in 0 W/m2
21:39 58.8 °F 56.8 °F 29.80 in SE 5.7 mph 8 mph 93% 0.00 in 0 W/m2
21:44 58.8 °F 56.8 °F 29.80 in SE 2 mph 8 mph 93% 0.00 in 0 W/m2
21:49 58.7 °F 56.7 °F 29.80 in SE 2.1 mph 7 mph 93% 0.00 in 0 W/m2
21:54 58.6 °F 56.7 °F 29.80 in SSE 3.2 mph 8 mph 93% 0.00 in 0 W/m2
21:59 58.6 °F 56.7 °F 29.80 in SE 2.1 mph 8 mph 93% 0.00 in 0 W/m2
22:04 58.6 °F 56.7 °F 29.80 in SE 3.7 mph 7 mph 93% 0.00 in 0 W/m2
22:09 58.6 °F 56.7 °F 29.80 in SE 2.9 mph 7 mph 93% 0.00 in 0 W/m2
22:14 58.6 °F 56.7 °F 29.80 in ESE 2.4 mph 5 mph 93% 0.00 in 0 W/m2
22:19 58.6 °F 56.7 °F 29.80 in ESE 3.6 mph 8 mph 93% 0.00 in 0 W/m2
22:24 58.6 °F 56.6 °F 29.80 in ESE 2.9 mph 8 mph 93% 0.00 in 0 W/m2
22:29 58.5 °F 56.5 °F 29.80 in ESE 2.3 mph 7 mph 93% 0.00 in 0 W/m2
22:34 58.5 °F 56.5 °F 29.80 in ESE 2.8 mph 9 mph 93% 0.00 in 0 W/m2
22:39 58.5 °F 56.5 °F 29.79 in ESE 5.1 mph 10 mph 93% 0.00 in 0 W/m2
22:44 58.5 °F 56.5 °F 29.79 in ESE 4.7 mph 9 mph 93% 0.00 in 0 W/m2
22:49 58.4 °F 56.4 °F 29.79 in ESE 3.7 mph 5 mph 93% 0.00 in 0 W/m2
22:54 58.3 °F 56.3 °F 29.79 in ESE 4.1 mph 7 mph 93% 0.00 in 0 W/m2
22:59 58.3 °F 56.3 °F 29.79 in ESE 2.4 mph 7 mph 93% 0.00 in 0 W/m2
23:04 58.3 °F 56.3 °F 29.79 in SE 4.2 mph 8 mph 93% 0.00 in 0 W/m2
23:09 58.3 °F 56.3 °F 29.79 in ESE 2.6 mph 8 mph 93% 0.00 in 0 W/m2
23:14 58.3 °F 56.3 °F 29.79 in ESE 4.4 mph 8 mph 93% 0.00 in 0 W/m2
23:19 58.3 °F 56.3 °F 29.79 in ESE 4.8 mph 8 mph 93% 0.00 in 0 W/m2
23:24 58.3 °F 56.3 °F 29.78 in East 3.9 mph 10 mph 93% 0.00 in 0 W/m2
23:29 58.2 °F 56.2 °F 29.78 in ESE 4.4 mph 7 mph 93% 0.00 in 0 W/m2
23:34 58.1 °F 56.1 °F 29.78 in ESE 3.9 mph 8 mph 93% 0.00 in 0 W/m2
23:39 58.1 °F 56.1 °F 29.78 in East 2.5 mph 7 mph 93% 0.00 in 0 W/m2
23:44 57.9 °F 55.9 °F 29.78 in ESE 3.6 mph 8 mph 93% 0.00 in 0 W/m2
23:49 57.9 °F 55.9 °F 29.78 in ESE 2.4 mph 8 mph 93% 0.00 in 0 W/m2
23:54 57.9 °F 55.9 °F 29.78 in East 3.3 mph 7 mph 93% 0.00 in 0 W/m2
23:59 57.8 °F 55.9 °F 29.78 in East 3.3 mph 8 mph 93.4% 0.00 in 0 W/m2
Bath Spa Weather
Compliments of Weather Underground - 2 mb